createdAt,value
2018-10-01T00:01:31.647Z,0.70
2018-10-01T00:04:00.611Z,0.60
2018-10-01T00:06:29.405Z,0.70
2018-10-01T00:08:58.335Z,0.90
2018-10-01T00:11:27.215Z,0.50
2018-10-01T00:13:56.343Z,0.65
2018-10-01T00:16:25.662Z,0.78
2018-10-01T00:18:54.590Z,0.50
2018-10-01T00:21:29.023Z,0.60
2018-10-01T00:23:58.402Z,0.50
2018-10-01T00:26:27.612Z,0.60
2018-10-01T00:28:57.228Z,0.70
2018-10-01T00:31:26.406Z,0.60
2018-10-01T00:33:55.496Z,0.50
2018-10-01T00:36:24.732Z,0.68
2018-10-01T00:38:53.716Z,0.53
2018-10-01T00:41:22.716Z,0.60
2018-10-01T00:43:51.571Z,0.62
2018-10-01T00:46:20.642Z,0.50
2018-10-01T00:48:49.695Z,0.42
2018-10-01T00:51:19.010Z,0.40
2018-10-01T00:53:48.367Z,0.50
2018-10-01T00:56:17.567Z,0.50
2018-10-01T00:58:46.984Z,0.50
2018-10-01T01:01:15.963Z,0.30
2018-10-01T01:03:44.771Z,0.40
2018-10-01T01:06:14.337Z,0.40
2018-10-01T01:08:43.427Z,0.30
2018-10-01T01:11:12.527Z,0.40
2018-10-01T01:13:42.315Z,0.33
2018-10-01T01:16:11.359Z,0.50
2018-10-01T01:18:40.370Z,0.40
2018-10-01T01:21:09.708Z,0.30
2018-10-01T01:23:38.690Z,0.40
2018-10-01T01:26:08.267Z,0.30
2018-10-01T01:28:37.868Z,0.30
2018-10-01T01:31:06.883Z,0.30
2018-10-01T01:33:36.008Z,0.30
2018-10-01T01:36:05.194Z,0.30
2018-10-01T01:38:34.303Z,0.30
2018-10-01T01:41:03.455Z,0.30
2018-10-01T01:43:32.756Z,0.20
2018-10-01T01:46:01.870Z,0.30
2018-10-01T01:48:30.476Z,0.30
2018-10-01T01:50:59.845Z,0.30
2018-10-01T01:53:28.651Z,0.20
2018-10-01T01:55:57.767Z,0.30
2018-10-01T01:58:27.199Z,0.20
2018-10-01T02:00:56.463Z,0.30
2018-10-01T02:03:25.299Z,0.20
2018-10-01T02:05:54.785Z,0.30
2018-10-01T02:08:23.655Z,0.20
2018-10-01T02:10:52.675Z,0.30
2018-10-01T02:13:21.375Z,0.20
2018-10-01T02:15:50.823Z,0.15
2018-10-01T02:18:19.675Z,0.20
2018-10-01T02:20:48.836Z,0.25
2018-10-01T02:23:17.937Z,0.20
2018-10-01T02:25:46.810Z,0.30
2018-10-01T02:28:16.019Z,0.20
2018-10-01T02:30:45.085Z,0.30
2018-10-01T02:33:14.387Z,0.30
2018-10-01T02:35:43.346Z,0.30
2018-10-01T02:38:12.297Z,0.20
2018-10-01T02:40:41.295Z,0.30
2018-10-01T02:43:10.616Z,0.30
2018-10-01T02:45:39.687Z,0.30
2018-10-01T02:48:08.800Z,0.40
2018-10-01T02:50:37.964Z,0.40
2018-10-01T02:53:12.202Z,0.40
2018-10-01T02:55:41.464Z,0.40
2018-10-01T02:58:10.431Z,0.40
2018-10-01T03:00:39.424Z,0.40
2018-10-01T03:03:08.638Z,0.40
2018-10-01T03:05:38.354Z,0.50
2018-10-01T03:08:07.507Z,0.40
2018-10-01T03:10:37.280Z,0.50
2018-10-01T03:13:06.239Z,0.50
2018-10-01T03:15:35.389Z,0.50
2018-10-01T03:18:04.562Z,0.65
2018-10-01T03:20:33.518Z,0.50
2018-10-01T03:23:02.443Z,0.50
2018-10-01T03:25:31.792Z,0.60
2018-10-01T03:28:00.890Z,0.60
2018-10-01T03:30:29.934Z,0.57
2018-10-01T03:32:59.207Z,0.70
2018-10-01T03:35:28.387Z,0.50
2018-10-01T03:37:57.774Z,0.50
2018-10-01T03:40:27.107Z,0.60
2018-10-01T03:42:55.987Z,0.60
2018-10-01T03:45:24.887Z,0.47
2018-10-01T03:47:54.199Z,0.60
2018-10-01T03:50:23.455Z,0.45
2018-10-01T03:52:52.389Z,0.50
2018-10-01T03:55:21.352Z,0.40
2018-10-01T03:57:50.260Z,0.50
2018-10-01T04:00:19.549Z,0.60
2018-10-01T04:02:49.228Z,0.70
2018-10-01T04:05:18.269Z,0.50
2018-10-01T04:07:47.048Z,0.60
2018-10-01T04:10:16.153Z,0.60
2018-10-01T04:12:45.051Z,0.50
2018-10-01T04:15:14.029Z,0.50
2018-10-01T04:17:43.302Z,0.50
2018-10-01T04:20:12.312Z,0.70
2018-10-01T04:22:41.202Z,0.70
2018-10-01T04:25:11.310Z,0.50
2018-10-01T04:27:40.703Z,0.60
2018-10-01T04:30:11.422Z,0.55
2018-10-01T04:32:40.288Z,0.42
2018-10-01T04:35:09.696Z,0.50
2018-10-01T04:37:38.581Z,0.50
2018-10-01T04:40:07.819Z,0.50
2018-10-01T04:42:36.611Z,0.60
2018-10-01T04:45:05.761Z,0.47
2018-10-01T04:47:35.074Z,1.00
2018-10-01T04:50:04.265Z,0.53
2018-10-01T04:52:33.246Z,0.78
2018-10-01T04:55:02.286Z,0.60
2018-10-01T04:57:31.354Z,0.60
2018-10-01T05:00:00.341Z,0.62
2018-10-01T05:02:29.559Z,0.80
2018-10-01T05:04:58.955Z,0.75
2018-10-01T05:07:28.726Z,0.70
2018-10-01T05:09:58.283Z,0.78
2018-10-01T05:12:27.267Z,0.62
2018-10-01T05:14:56.403Z,0.90
2018-10-01T05:17:25.462Z,0.93
2018-10-01T05:19:54.531Z,1.12
2018-10-01T05:22:23.440Z,0.70
2018-10-01T05:24:53.075Z,0.60
2018-10-01T05:27:22.047Z,0.70
2018-10-01T05:29:51.246Z,0.55
2018-10-01T05:32:20.576Z,0.60
2018-10-01T05:34:49.595Z,0.70
2018-10-01T05:37:18.819Z,0.80
2018-10-01T05:39:47.999Z,1.20
2018-10-01T05:42:17.155Z,0.95
2018-10-01T05:44:46.134Z,0.85
2018-10-01T05:47:15.633Z,0.98
2018-10-01T05:49:44.540Z,1.00
2018-10-01T05:52:13.741Z,1.00
2018-10-01T05:54:43.205Z,0.90
2018-10-01T05:57:12.436Z,1.10
2018-10-01T05:59:41.441Z,0.93
2018-10-01T06:02:10.630Z,1.57
2018-10-01T06:04:39.675Z,0.75
2018-10-01T06:07:09.347Z,0.90
2018-10-01T06:09:38.564Z,1.10
2018-10-01T06:12:07.740Z,1.12
2018-10-01T06:14:36.936Z,0.80
2018-10-01T06:17:06.172Z,0.60
2018-10-01T06:19:35.052Z,0.70
2018-10-01T06:22:04.332Z,0.62
2018-10-01T06:24:33.634Z,0.98
2018-10-01T06:27:02.611Z,0.95
2018-10-01T06:29:31.828Z,0.98
2018-10-01T06:32:01.031Z,1.10
2018-10-01T06:34:30.024Z,0.70
2018-10-01T06:36:59.203Z,1.07
2018-10-01T06:39:28.100Z,1.05
2018-10-01T06:41:57.169Z,0.90
2018-10-01T06:44:26.199Z,0.60
2018-10-01T06:46:55.542Z,0.53
2018-10-01T06:49:24.843Z,0.62
2018-10-01T06:51:54.818Z,0.45
2018-10-01T06:54:23.646Z,0.60
2018-10-01T06:56:52.600Z,0.53
2018-10-01T06:59:21.568Z,0.70
2018-10-01T07:01:50.527Z,0.55
2018-10-01T07:04:19.471Z,0.65
2018-10-01T07:06:48.578Z,0.70
2018-10-01T07:09:18.370Z,0.82
2018-10-01T07:11:50.788Z,0.70
2018-10-01T07:14:19.954Z,0.70
2018-10-01T07:16:48.902Z,0.70
2018-10-01T07:19:17.760Z,0.88
2018-10-01T07:21:47.277Z,1.40
2018-10-01T07:24:16.242Z,0.53
2018-10-01T07:26:45.023Z,1.00
2018-10-01T07:29:14.318Z,1.70
2018-10-01T07:31:43.227Z,2.17
2018-10-01T07:34:12.025Z,1.65
2018-10-01T07:36:41.047Z,1.15
2018-10-01T07:39:10.048Z,2.37
2018-10-01T07:41:38.955Z,2.17
2018-10-01T07:44:08.521Z,2.40
2018-10-01T07:46:37.274Z,2.67
2018-10-01T07:49:06.391Z,1.80
2018-10-01T07:51:36.155Z,1.70
2018-10-01T07:54:05.212Z,2.20
2018-10-01T07:56:34.215Z,2.10
2018-10-01T07:59:07.871Z,1.90
2018-10-01T08:01:36.752Z,1.45
2018-10-01T08:04:05.795Z,0.50
2018-10-01T08:06:34.714Z,0.50
2018-10-01T08:09:04.439Z,0.40
2018-10-01T08:11:33.508Z,0.40
2018-10-01T08:14:03.184Z,0.40
2018-10-01T08:16:32.104Z,0.50
2018-10-01T08:19:01.187Z,0.40
2018-10-01T08:21:30.800Z,0.47
2018-10-01T08:24:00.235Z,0.40
2018-10-01T08:26:29.343Z,0.30
2018-10-01T08:28:58.374Z,0.30
2018-10-01T08:31:27.294Z,0.30
2018-10-01T08:33:56.090Z,0.40
2018-10-01T08:36:25.303Z,0.30
2018-10-01T08:38:54.280Z,0.35
2018-10-01T08:41:23.273Z,0.30
2018-10-01T08:43:52.486Z,0.35
2018-10-01T08:46:21.578Z,0.40
2018-10-01T08:48:57.647Z,0.30
2018-10-01T08:51:31.836Z,0.28
2018-10-01T08:54:03.722Z,0.30
2018-10-01T08:56:32.838Z,0.40
2018-10-01T08:59:01.594Z,0.20
2018-10-01T09:01:31.365Z,0.40
2018-10-01T09:04:00.401Z,0.40
2018-10-01T09:06:29.898Z,0.30
2018-10-01T09:08:59.222Z,0.30
2018-10-01T09:11:28.161Z,0.23
2018-10-01T09:13:57.264Z,5.25
2018-10-01T09:16:26.610Z,1.27
2018-10-01T09:18:55.466Z,0.20
2018-10-01T09:21:24.473Z,0.30
2018-10-01T09:23:53.315Z,0.30
2018-10-01T09:26:22.441Z,0.20
2018-10-01T09:28:51.536Z,0.20
2018-10-01T09:31:20.891Z,0.30
2018-10-01T09:33:49.944Z,0.30
2018-10-01T09:36:19.022Z,0.20
2018-10-01T09:38:48.266Z,0.40
2018-10-01T09:41:17.370Z,0.40
2018-10-01T09:43:46.451Z,0.30
2018-10-01T09:46:15.828Z,0.30
2018-10-01T09:48:44.844Z,0.30
2018-10-01T09:51:13.855Z,0.30
2018-10-01T09:53:43.077Z,0.23
2018-10-01T09:56:12.715Z,0.30
2018-10-01T09:58:41.677Z,0.20
2018-10-01T10:01:12.230Z,0.20
2018-10-01T10:03:40.961Z,0.20
2018-10-01T10:06:10.411Z,0.28
2018-10-01T10:08:40.100Z,0.30
2018-10-01T10:11:09.118Z,0.40
2018-10-01T10:13:38.128Z,0.25
2018-10-01T10:16:08.367Z,0.30
2018-10-01T10:18:37.515Z,0.30
2018-10-01T10:21:06.531Z,0.20
2018-10-01T10:23:36.003Z,0.30
2018-10-01T10:26:05.042Z,0.30
2018-10-01T10:28:34.301Z,0.30
2018-10-01T10:31:03.558Z,0.30
2018-10-01T10:33:33.179Z,0.30
2018-10-01T10:36:02.252Z,0.30
2018-10-01T10:38:31.919Z,0.30
2018-10-01T10:41:00.934Z,0.25
2018-10-01T10:43:30.084Z,0.30
2018-10-01T10:45:59.278Z,0.30
2018-10-01T10:48:28.059Z,0.25
2018-10-01T10:50:56.935Z,0.20
2018-10-01T10:53:26.234Z,0.30
2018-10-01T10:55:55.251Z,0.30
2018-10-01T10:58:25.037Z,0.20
2018-10-01T11:00:54.322Z,0.20
2018-10-01T11:03:23.307Z,0.23
2018-10-01T11:05:52.312Z,0.20
2018-10-01T11:08:21.443Z,0.20
2018-10-01T11:10:50.378Z,0.13
2018-10-01T11:13:19.204Z,0.10
2018-10-01T11:15:48.622Z,0.20
2018-10-01T11:18:17.351Z,0.20
2018-10-01T11:20:46.486Z,0.20
2018-10-01T11:23:15.479Z,0.30
2018-10-01T11:25:44.609Z,0.17
2018-10-01T11:28:13.727Z,0.20
2018-10-01T11:30:42.685Z,0.20
2018-10-01T11:33:11.768Z,0.20
2018-10-01T11:35:40.842Z,0.20
2018-10-01T11:40:34.817Z,0.20
2018-10-01T11:43:03.707Z,0.20
2018-10-01T11:45:32.814Z,0.15
2018-10-01T11:48:01.952Z,0.20
2018-10-01T11:50:30.852Z,0.20
2018-10-01T11:53:00.158Z,0.10
2018-10-01T11:55:29.226Z,0.30
2018-10-01T11:57:58.335Z,0.30
2018-10-01T12:00:27.341Z,0.30
2018-10-01T12:02:56.767Z,0.30
2018-10-01T12:05:25.831Z,0.10
2018-10-01T12:07:54.666Z,0.20
2018-10-01T12:10:23.855Z,0.20
2018-10-01T12:12:52.825Z,0.20
2018-10-01T12:15:21.660Z,0.30
2018-10-01T12:17:50.883Z,0.20
2018-10-01T12:20:20.014Z,0.30
2018-10-01T12:22:49.142Z,0.30
2018-10-01T12:25:18.431Z,0.20
2018-10-01T12:27:47.517Z,0.20
2018-10-01T12:30:16.632Z,0.10
2018-10-01T12:32:46.422Z,0.10
2018-10-01T12:35:15.648Z,0.25
2018-10-01T12:37:44.797Z,0.20
2018-10-01T12:40:13.939Z,0.20
2018-10-01T12:42:43.323Z,0.25
2018-10-01T12:45:12.465Z,0.28
2018-10-01T12:47:41.559Z,0.30
2018-10-01T12:50:10.691Z,0.30
2018-10-01T12:52:39.888Z,0.30
2018-10-01T12:55:08.976Z,0.15
2018-10-01T12:57:38.259Z,0.20
2018-10-01T13:00:07.367Z,0.20
2018-10-01T13:02:36.391Z,0.20
2018-10-01T13:05:06.089Z,0.10
2018-10-01T13:07:35.279Z,0.20
2018-10-01T13:10:04.408Z,0.15
2018-10-01T13:12:33.772Z,0.20
2018-10-01T13:15:02.886Z,0.20
2018-10-01T13:17:32.104Z,0.20
2018-10-01T13:20:01.236Z,0.30
2018-10-01T13:22:30.495Z,0.20
2018-10-01T13:24:59.678Z,0.25
2018-10-01T13:27:29.142Z,0.20
2018-10-01T13:29:58.257Z,0.20
2018-10-01T13:32:27.383Z,0.30
2018-10-01T13:34:57.215Z,0.10
2018-10-01T13:37:26.259Z,0.10
2018-10-01T13:39:55.478Z,0.20
2018-10-01T13:42:24.797Z,0.30
2018-10-01T13:44:54.000Z,0.30
2018-10-01T13:47:23.204Z,0.40
2018-10-01T13:49:52.768Z,0.20
2018-10-01T13:52:21.930Z,0.20
2018-10-01T13:54:51.137Z,0.23
2018-10-01T13:57:20.514Z,0.10
2018-10-01T13:59:49.755Z,0.20
2018-10-01T14:02:18.887Z,0.10
2018-10-01T14:04:47.919Z,0.10
2018-10-01T14:07:17.327Z,0.10
2018-10-01T14:09:46.358Z,0.10
2018-10-01T14:12:15.539Z,0.10
2018-10-01T14:14:45.063Z,0.17
2018-10-01T14:17:14.150Z,0.20
2018-10-01T14:19:43.330Z,0.20
2018-10-01T14:22:12.728Z,0.20
2018-10-01T14:24:41.907Z,0.10
2018-10-01T14:27:11.229Z,0.20
2018-10-01T14:29:40.630Z,0.20
2018-10-01T14:32:09.827Z,0.20
2018-10-01T14:34:39.112Z,0.30
2018-10-01T14:37:08.591Z,0.20
2018-10-01T14:39:37.724Z,0.40
2018-10-01T14:42:06.919Z,0.20
2018-10-01T14:44:36.314Z,0.20
2018-10-01T14:47:05.598Z,0.25
2018-10-01T14:49:34.670Z,0.20
2018-10-01T14:52:03.954Z,0.10
2018-10-01T14:54:33.097Z,0.15
2018-10-01T14:57:02.147Z,0.10
2018-10-01T14:59:31.635Z,0.20
2018-10-01T15:02:00.833Z,0.17
2018-10-01T15:04:30.037Z,0.20
2018-10-01T15:06:59.396Z,0.10
2018-10-01T15:09:28.427Z,0.10
2018-10-01T15:11:57.655Z,0.10
2018-10-01T15:14:27.074Z,0.10
2018-10-01T15:16:55.945Z,0.10
2018-10-01T15:19:25.221Z,0.20
2018-10-01T15:21:54.622Z,0.10
2018-10-01T15:24:23.750Z,0.10
2018-10-01T15:26:52.915Z,0.20
2018-10-01T15:29:22.543Z,0.20
2018-10-01T15:31:51.621Z,0.10
2018-10-01T15:34:20.719Z,0.10
2018-10-01T15:36:50.351Z,0.10
2018-10-01T15:39:19.404Z,0.17
2018-10-01T15:41:48.503Z,0.10
2018-10-01T15:44:18.163Z,0.20
2018-10-01T15:46:47.406Z,0.10
2018-10-01T15:49:16.558Z,0.23
2018-10-01T15:51:45.714Z,0.20
2018-10-01T15:54:15.044Z,0.20
2018-10-01T15:56:44.239Z,0.30
2018-10-01T15:59:13.580Z,0.50
2018-10-01T16:01:42.852Z,0.20
2018-10-01T16:04:11.936Z,0.20
2018-10-01T16:06:42.132Z,0.20
2018-10-01T16:09:12.366Z,0.30
2018-10-01T16:11:41.562Z,0.30
2018-10-01T16:14:10.923Z,0.30
2018-10-01T16:16:40.054Z,0.20
2018-10-01T16:19:09.251Z,0.30
2018-10-01T16:21:38.323Z,0.20
2018-10-01T16:24:07.404Z,0.30
2018-10-01T16:26:36.576Z,0.20
2018-10-01T16:29:05.811Z,0.28
2018-10-01T16:31:35.284Z,0.30
2018-10-01T16:34:04.287Z,0.30
2018-10-01T16:36:33.611Z,0.30
2018-10-01T16:39:03.558Z,0.50
2018-10-01T16:41:32.640Z,0.50
2018-10-01T16:44:01.901Z,0.50
2018-10-01T16:46:31.213Z,0.50
2018-10-01T16:49:00.495Z,0.60
2018-10-01T16:51:29.811Z,0.70
2018-10-01T16:53:59.033Z,0.60
2018-10-01T16:56:28.632Z,0.70
2018-10-01T16:58:58.013Z,0.70
2018-10-01T17:01:27.148Z,0.40
2018-10-01T17:03:56.291Z,0.70
2018-10-01T17:06:32.328Z,0.60
2018-10-01T17:09:01.617Z,1.60
2018-10-01T17:11:30.886Z,4.25
2018-10-01T17:14:00.126Z,1.15
2018-10-01T17:16:29.158Z,17.37
2018-10-01T17:18:58.235Z,3.08
2018-10-01T17:21:27.663Z,3.75
2018-10-01T17:23:56.972Z,1.57
2018-10-01T17:26:26.092Z,1.00
2018-10-01T17:28:55.375Z,0.80
2018-10-01T17:31:24.459Z,1.07
2018-10-01T17:33:53.634Z,0.88
2018-10-01T17:36:23.070Z,1.00
2018-10-01T17:38:52.182Z,1.17
2018-10-01T17:41:21.302Z,1.85
2018-10-01T17:43:51.015Z,1.30
2018-10-01T17:46:20.098Z,1.42
2018-10-01T17:48:49.242Z,1.17
2018-10-01T17:51:19.132Z,1.47
2018-10-01T17:53:48.060Z,1.40
2018-10-01T17:56:17.106Z,1.75
2018-10-01T17:58:46.569Z,1.82
2018-10-01T18:01:15.651Z,1.72
2018-10-01T18:03:44.703Z,2.65
2018-10-01T18:06:14.147Z,2.60
2018-10-01T18:08:43.339Z,2.17
2018-10-01T18:11:12.403Z,2.17
2018-10-01T18:13:41.662Z,2.75
2018-10-01T18:16:10.631Z,2.90
2018-10-01T18:18:39.658Z,2.98
2018-10-01T18:21:09.272Z,3.90
2018-10-01T18:23:38.533Z,3.45
2018-10-01T18:26:07.559Z,4.08
2018-10-01T18:28:37.019Z,4.03
2018-10-01T18:31:06.227Z,2.80
2018-10-01T18:33:35.269Z,1.87
2018-10-01T18:36:04.620Z,2.20
2018-10-01T18:38:33.850Z,2.77
2018-10-01T18:41:03.742Z,2.30
2018-10-01T18:43:33.942Z,2.67
2018-10-01T18:46:03.040Z,2.90
2018-10-01T18:48:32.190Z,3.20
2018-10-01T18:51:01.771Z,2.62
2018-10-01T18:53:30.867Z,2.50
2018-10-01T18:55:59.896Z,2.40
2018-10-01T18:58:29.166Z,2.45
2018-10-01T19:00:58.358Z,1.50
2018-10-01T19:03:27.734Z,2.42
2018-10-01T19:05:57.284Z,1.77
2018-10-01T19:08:26.334Z,1.80
2018-10-01T19:10:55.808Z,1.77
2018-10-01T19:13:25.097Z,2.05
2018-10-01T19:15:55.882Z,2.47
2018-10-01T19:18:24.986Z,2.83
2018-10-01T19:20:53.984Z,3.27
2018-10-01T19:23:23.037Z,1.80
2018-10-01T19:25:52.349Z,1.62
2018-10-01T19:28:21.495Z,1.57
2018-10-01T19:30:50.563Z,1.70
2018-10-01T19:33:19.997Z,1.72
2018-10-01T19:35:49.551Z,1.70
2018-10-01T19:38:18.807Z,1.47
2018-10-01T19:40:47.970Z,1.45
2018-10-01T19:43:17.548Z,1.77
2018-10-01T19:45:46.744Z,1.67
2018-10-01T19:48:15.843Z,2.45
2018-10-01T19:50:45.269Z,1.75
2018-10-01T19:53:14.555Z,3.22
2018-10-01T19:55:43.736Z,3.15
2018-10-01T19:58:12.944Z,2.92
2018-10-01T20:00:43.456Z,3.05
2018-10-01T20:03:13.148Z,2.85
2018-10-01T20:05:42.219Z,3.27
2018-10-01T20:08:11.785Z,3.25
2018-10-01T20:10:41.096Z,3.15
2018-10-01T20:13:10.204Z,3.37
2018-10-01T20:15:39.334Z,3.10
2018-10-01T20:18:08.671Z,3.15
2018-10-01T20:20:37.888Z,4.40
2018-10-01T20:23:07.028Z,4.58
2018-10-01T20:25:36.417Z,4.10
2018-10-01T20:28:05.800Z,4.00
2018-10-01T20:30:35.061Z,4.55
2018-10-01T20:33:04.548Z,4.37
2018-10-01T20:35:33.758Z,4.20
2018-10-01T20:38:02.883Z,3.75
2018-10-01T20:40:32.202Z,4.50
2018-10-01T20:43:01.534Z,4.83
2018-10-01T20:45:30.427Z,4.65
2018-10-01T20:47:59.975Z,5.28
2018-10-01T20:50:29.093Z,5.22
2018-10-01T20:52:58.211Z,5.47
2018-10-01T20:55:27.196Z,5.55
2018-10-01T20:57:56.482Z,5.40
2018-10-01T21:00:25.785Z,5.45
2018-10-01T21:02:55.107Z,5.40
2018-10-01T21:05:24.363Z,5.80
2018-10-01T21:07:53.372Z,5.90
2018-10-01T21:10:22.578Z,5.40
2018-10-01T21:12:51.777Z,6.72
2018-10-01T21:15:20.922Z,6.03
2018-10-01T21:17:50.326Z,10.45
2018-10-01T21:20:19.415Z,12.68
2018-10-01T21:22:48.688Z,5.33
2018-10-01T21:25:18.111Z,7.25
2018-10-01T21:27:47.371Z,8.43
2018-10-01T21:30:16.227Z,5.50
2018-10-01T21:32:45.306Z,5.37
2018-10-01T21:35:14.415Z,5.15
2018-10-01T21:37:43.469Z,5.62
2018-10-01T21:40:13.996Z,5.17
2018-10-01T21:42:43.331Z,5.58
2018-10-01T21:45:13.630Z,5.95
2018-10-01T21:47:42.831Z,6.95
2018-10-01T21:50:11.730Z,6.53
2018-10-01T21:52:40.882Z,6.92
2018-10-01T21:55:09.950Z,5.95
2018-10-01T21:57:39.073Z,6.33
2018-10-01T22:00:10.587Z,6.35
2018-10-01T22:02:39.671Z,6.40
2018-10-01T22:05:09.040Z,6.35
2018-10-01T22:07:38.111Z,6.75
2018-10-01T22:10:07.087Z,6.87
2018-10-01T22:12:36.194Z,8.15
2018-10-01T22:15:05.419Z,8.70
2018-10-01T22:17:34.444Z,8.30
2018-10-01T22:20:03.564Z,8.83
2018-10-01T22:22:32.755Z,9.43
2018-10-01T22:25:02.016Z,8.23
2018-10-01T22:27:31.030Z,7.30
2018-10-01T22:30:00.222Z,6.58
2018-10-01T22:32:29.208Z,5.95
2018-10-01T22:34:58.402Z,5.67
2018-10-01T22:37:27.585Z,5.60
2018-10-01T22:39:56.404Z,5.53
2018-10-01T22:42:26.041Z,6.42
2018-10-01T22:44:55.686Z,5.60
2018-10-01T22:47:24.844Z,5.42
2018-10-01T22:49:53.986Z,5.05
2018-10-01T22:52:23.622Z,5.70
2018-10-01T22:54:52.819Z,5.70
2018-10-01T22:57:22.014Z,5.40
2018-10-01T22:59:51.175Z,5.37
2018-10-01T23:02:20.062Z,5.15
2018-10-01T23:04:48.984Z,4.87
2018-10-01T23:07:18.599Z,4.40
2018-10-01T23:09:47.700Z,5.12
2018-10-01T23:12:16.765Z,5.12
2018-10-01T23:14:46.106Z,4.95
2018-10-01T23:17:15.303Z,4.70
2018-10-01T23:19:44.391Z,5.45
2018-10-01T23:22:13.530Z,4.40
2018-10-01T23:24:42.514Z,4.60
2018-10-01T23:27:11.319Z,5.33
2018-10-01T23:29:40.609Z,5.12
2018-10-01T23:32:09.658Z,5.83
2018-10-01T23:34:38.790Z,5.78
2018-10-01T23:37:08.214Z,6.22
2018-10-01T23:39:37.283Z,5.55
2018-10-01T23:42:06.239Z,5.78
2018-10-01T23:44:35.478Z,5.60
2018-10-01T23:47:04.491Z,5.75
2018-10-01T23:49:33.592Z,5.33
2018-10-01T23:52:02.750Z,5.15
2018-10-01T23:54:31.981Z,5.50
2018-10-01T23:57:01.126Z,5.33
2018-10-01T23:59:30.814Z,6.40
